Time;durP1;ratioP1;P1;durP2;ratioP2;P2;SDS_P1;SDS_P2;PMS_P1;PMS_P2;Temp;Humidity;BMP_temperature;BMP_pressure;BME280_temperature;BME280_humidity;BME280_pressure;Samples;Min_cycle;Max_cycle;Signal;HPM_P1;HPM_P2
2021/11/19 00:02:06;;;;;;;13.63;6.63;;;;;;;6.55;100.00;101477.84;5087793;28;20222;-84
2021/11/19 00:04:34;;;;;;;10.07;6.00;;;;;;;6.59;100.00;101479.59;5083765;28;20208;-84
2021/11/19 00:07:01;;;;;;;11.07;6.13;;;;;;;6.59;100.00;101472.66;5086465;28;20231;-84
2021/11/19 00:09:29;;;;;;;13.17;6.10;;;;;;;6.59;100.00;101479.59;5084747;28;20252;-84
2021/11/19 00:11:55;;;;;;;15.90;5.60;;;;;;;6.62;100.00;101467.50;5088962;28;20606;-84
2021/11/19 00:14:25;;;;;;;14.23;5.97;;;;;;;6.67;100.00;101470.13;5083473;28;20354;-85
2021/11/19 00:16:57;;;;;;;15.13;5.10;;;;;;;6.70;100.00;101462.38;5087192;28;20217;-83
2021/11/19 00:19:24;;;;;;;11.83;6.07;;;;;;;6.72;100.00;101467.53;5082001;28;20210;-84
2021/11/19 00:21:51;;;;;;;13.27;6.37;;;;;;;6.74;100.00;101461.50;5089076;28;20250;-86
2021/11/19 00:24:18;;;;;;;13.87;6.40;;;;;;;6.74;100.00;101458.06;5084056;28;20300;-84
2021/11/19 00:26:45;;;;;;;11.00;6.43;;;;;;;6.78;100.00;101481.38;5089410;28;20635;-86
2021/11/19 00:29:14;;;;;;;11.20;6.53;;;;;;;6.83;100.00;101469.28;5084581;28;20229;-84
2021/11/19 00:31:43;;;;;;;12.87;6.63;;;;;;;6.86;100.00;101464.97;5083839;28;20332;-84
2021/11/19 00:34:09;;;;;;;12.33;7.03;;;;;;;6.89;100.00;101463.25;5085895;28;20292;-84
2021/11/19 00:36:38;;;;;;;19.43;6.53;;;;;;;6.91;100.00;101478.81;5081611;28;21607;-84
2021/11/19 00:39:07;;;;;;;11.20;5.93;;;;;;;6.91;100.00;101469.34;5083388;28;20236;-84
2021/11/19 00:41:35;;;;;;;12.57;6.47;;;;;;;6.93;100.00;101464.13;5085565;28;20218;-88
2021/11/19 00:44:02;;;;;;;15.30;6.23;;;;;;;6.96;100.00;101472.78;5085563;28;20194;-84
2021/11/19 00:46:28;;;;;;;12.50;6.20;;;;;;;6.99;100.00;101475.38;5086554;28;20701;-84
2021/11/19 00:48:56;;;;;;;15.27;6.07;;;;;;;7.03;100.00;101476.25;5086081;28;20208;-84
2021/11/19 00:51:26;;;;;;;11.70;5.47;;;;;;;7.04;100.00;101461.59;5082876;28;20504;-86
2021/11/19 00:53:56;;;;;;;11.60;6.30;;;;;;;7.07;100.00;101467.66;5085454;28;20194;-85
2021/11/19 00:56:26;;;;;;;12.67;6.27;;;;;;;7.08;100.00;101458.97;5084665;28;20651;-88
2021/11/19 00:58:54;;;;;;;13.67;6.93;;;;;;;7.09;100.00;101458.13;5087785;28;20751;-85
2021/11/19 01:01:23;;;;;;;14.80;6.13;;;;;;;7.14;100.00;101465.91;5081202;28;20213;-86
2021/11/19 01:03:50;;;;;;;17.53;6.73;;;;;;;7.15;100.00;101462.47;5085414;28;20224;-84
2021/11/19 01:06:18;;;;;;;11.53;6.20;;;;;;;7.17;100.00;101455.53;5081009;28;20294;-86
2021/11/19 01:08:51;;;;;;;11.37;6.80;;;;;;;7.19;100.00;101453.81;5085546;28;20194;-84
2021/11/19 01:11:21;;;;;;;12.00;6.83;;;;;;;7.19;100.00;101459.88;5084124;28;20202;-86
2021/11/19 01:13:50;;;;;;;8.63;5.40;;;;;;;7.18;100.00;101452.09;5081645;28;20828;-84
2021/11/19 01:16:20;;;;;;;14.57;6.40;;;;;;;7.23;100.00;101457.25;5083171;28;20222;-83
2021/11/19 01:18:49;;;;;;;11.87;6.33;;;;;;;7.25;100.00;101460.75;5084816;28;20209;-85
2021/11/19 01:21:21;;;;;;;9.47;6.00;;;;;;;7.29;100.00;101460.75;5084474;28;20754;-84
2021/11/19 01:23:47;;;;;;;10.00;5.73;;;;;;;7.29;100.00;101459.88;5102368;28;20211;-85
2021/11/19 01:26:20;;;;;;;13.03;6.23;;;;;;;7.28;100.00;101443.47;5077823;28;20592;-84
2021/11/19 01:28:48;;;;;;;11.13;5.47;;;;;;;7.28;100.00;101458.13;5087582;28;20214;-86
2021/11/19 01:31:18;;;;;;;10.23;5.27;;;;;;;7.30;100.00;101456.41;5085673;28;20234;-85
2021/11/19 01:33:48;;;;;;;11.33;6.27;;;;;;;7.36;100.00;101464.22;5084034;28;20202;-84
2021/11/19 01:36:30;;;;;;;14.83;7.10;;;;;;;7.43;100.00;101460.75;5082703;28;20222;-86
2021/11/19 01:39:08;;;;;;;12.50;6.40;;;;;;;7.46;100.00;101462.47;5081594;28;20293;-84
2021/11/19 01:41:49;;;;;;;8.97;5.80;;;;;;;7.45;100.00;101465.94;5084197;28;20232;-84
2021/11/19 01:44:21;;;;;;;9.80;5.80;;;;;;;7.45;100.00;101464.19;5099414;28;20223;-85
2021/11/19 01:46:50;;;;;;;10.17;5.93;;;;;;;7.46;100.00;101471.13;5087223;28;20273;-86
2021/11/19 01:49:18;;;;;;;11.40;5.53;;;;;;;7.47;100.00;101480.63;5072834;28;20228;-84
2021/11/19 01:51:51;;;;;;;13.63;6.07;;;;;;;7.47;100.00;101462.47;5084397;28;20239;-84
2021/11/19 01:54:21;;;;;;;11.13;5.37;;;;;;;7.47;100.00;101459.03;5086660;28;20637;-84
2021/11/19 01:56:52;;;;;;;9.67;5.40;;;;;;;7.47;100.00;101464.22;5083577;28;20327;-85
2021/11/19 01:59:27;;;;;;;11.17;6.17;;;;;;;7.50;100.00;101459.88;5082355;28;20650;-84
2021/11/19 02:02:01;;;;;;;10.43;5.73;;;;;;;7.50;100.00;101462.47;5084293;28;20218;-86
2021/11/19 02:04:32;;;;;;;14.17;5.63;;;;;;;7.52;100.00;101462.47;5084230;28;20235;-85
2021/11/19 02:07:03;;;;;;;10.60;5.63;;;;;;;7.54;100.00;101456.41;5075621;28;20206;-85
2021/11/19 02:09:58;;;;;;;8.10;5.23;;;;;;;7.55;100.00;101454.69;5087239;28;20210;-87
2021/11/19 02:12:32;;;;;;;10.53;6.07;;;;;;;7.59;100.00;101451.22;5082044;28;20647;-87
2021/11/19 02:15:10;;;;;;;10.73;5.73;;;;;;;7.60;100.00;101442.59;5082765;28;20211;-84
2021/11/19 02:17:40;;;;;;;12.57;6.13;;;;;;;7.61;100.00;101444.31;5098391;28;20211;-87
2021/11/19 02:20:10;;;;;;;8.63;6.03;;;;;;;7.66;100.00;101439.97;5085341;28;20209;-86
2021/11/19 02:22:43;;;;;;;9.37;5.47;;;;;;;7.66;100.00;101432.19;5083755;28;20212;-86
2021/11/19 02:25:15;;;;;;;9.73;5.80;;;;;;;7.70;100.00;101436.50;5080560;28;20204;-84
2021/11/19 02:27:46;;;;;;;10.03;6.30;;;;;;;7.71;100.00;101422.66;5085974;28;20268;-86
2021/11/19 02:30:16;;;;;;;11.37;6.30;;;;;;;7.75;100.00;101439.09;5084791;28;20194;-84
2021/11/19 02:32:52;;;;;;;9.33;6.33;;;;;;;7.82;100.00;101435.63;5084376;28;20227;-86
2021/11/19 02:35:21;;;;;;;10.57;6.20;;;;;;;7.84;100.00;101438.22;5079722;28;20212;-84
2021/11/19 02:37:53;;;;;;;10.70;5.47;;;;;;;7.83;100.00;101428.69;5084276;28;20238;-83
2021/11/19 02:40:24;;;;;;;12.40;6.37;;;;;;;7.83;100.00;101433.88;5082656;28;20249;-85
2021/11/19 02:42:53;;;;;;;14.67;7.17;;;;;;;7.83;100.00;101437.38;5083273;28;20286;-84
2021/11/19 02:45:25;;;;;;;11.93;6.17;;;;;;;7.87;100.00;101448.59;5073196;28;20724;-85
2021/11/19 02:47:54;;;;;;;8.70;6.10;;;;;;;7.88;100.00;101448.59;5078268;28;20304;-86
2021/11/19 02:50:23;;;;;;;12.07;6.50;;;;;;;7.88;100.00;101451.22;5079016;28;20230;-84
2021/11/19 02:52:57;;;;;;;11.90;5.83;;;;;;;7.88;100.00;101452.91;5086390;28;20231;-84
2021/11/19 02:55:29;;;;;;;9.70;6.00;;;;;;;7.92;100.00;101452.06;5074715;28;20416;-84
2021/11/19 02:57:55;;;;;;;12.10;6.50;;;;;;;7.91;100.00;101455.50;5083271;28;20214;-86
2021/11/19 03:00:30;;;;;;;10.57;5.97;;;;;;;7.89;100.00;101454.66;5079183;28;20201;-84
2021/11/19 03:02:56;;;;;;;9.13;5.50;;;;;;;7.88;100.00;101456.41;5083530;28;20319;-88
2021/11/19 03:05:26;;;;;;;16.20;6.57;;;;;;;7.92;100.00;101462.44;5087231;28;20262;-85
2021/11/19 03:07:54;;;;;;;9.90;5.87;;;;;;;7.95;100.00;101463.31;5088309;28;20319;-84
2021/11/19 03:10:24;;;;;;;12.03;6.83;;;;;;;7.96;100.00;101449.44;5086653;28;20205;-83
2021/11/19 03:12:52;;;;;;;14.57;6.80;;;;;;;8.02;100.00;101450.28;5085707;28;20228;-84
2021/11/19 03:15:22;;;;;;;9.73;5.50;;;;;;;8.01;100.00;101456.38;5090225;28;20201;-88
2021/11/19 03:17:49;;;;;;;11.43;6.43;;;;;;;8.00;100.00;101452.88;5087399;28;20633;-85
2021/11/19 03:20:21;;;;;;;8.57;6.30;;;;;;;8.00;100.00;101450.28;5091248;28;20197;-84
2021/11/19 03:22:49;;;;;;;9.47;6.03;;;;;;;8.00;100.00;101457.22;5087960;28;20233;-85
2021/11/19 03:25:21;;;;;;;10.83;6.60;;;;;;;8.00;100.00;101452.03;5089343;28;20202;-86
2021/11/19 03:27:50;;;;;;;9.13;5.73;;;;;;;8.00;100.00;101452.03;5086394;28;20207;-84
2021/11/19 03:30:26;;;;;;;12.00;6.73;;;;;;;8.01;100.00;101451.19;5087156;28;20679;-84
2021/11/19 03:32:53;;;;;;;12.70;6.57;;;;;;;8.01;100.00;101451.19;5087028;28;20224;-86
2021/11/19 03:35:22;;;;;;;12.90;6.10;;;;;;;8.04;100.00;101453.75;5087332;28;20194;-84
2021/11/19 03:37:50;;;;;;;12.00;6.30;;;;;;;8.04;100.00;101445.94;5086890;28;20248;-85
2021/11/19 03:40:21;;;;;;;9.30;5.97;;;;;;;8.03;100.00;101441.66;5082878;28;20202;-87
2021/11/19 03:42:50;;;;;;;13.50;6.17;;;;;;;8.05;100.00;101442.50;5088347;28;20229;-85
2021/11/19 03:45:20;;;;;;;10.03;6.50;;;;;;;8.03;100.00;101447.69;5087899;28;20296;-84
2021/11/19 03:47:51;;;;;;;10.03;6.10;;;;;;;7.99;100.00;101427.81;5087784;28;20839;-83
2021/11/19 03:50:22;;;;;;;9.63;6.70;;;;;;;8.00;100.00;101449.44;5087885;28;20228;-86
2021/11/19 03:52:49;;;;;;;10.63;5.80;;;;;;;8.01;100.00;101451.19;5087077;28;20317;-85
2021/11/19 03:55:20;;;;;;;11.40;5.70;;;;;;;8.01;100.00;101443.38;5086643;28;20209;-85
2021/11/19 03:57:49;;;;;;;9.27;5.93;;;;;;;7.99;100.00;101438.19;5103646;28;20224;-83
2021/11/19 04:00:21;;;;;;;12.13;5.77;;;;;;;7.97;100.00;101434.75;5085625;28;20854;-86
2021/11/19 04:02:52;;;;;;;14.63;6.10;;;;;;;8.00;100.00;101447.69;5090296;28;20278;-88
2021/11/19 04:05:20;;;;;;;10.83;5.33;;;;;;;8.00;100.00;101445.09;5085446;28;20205;-84
2021/11/19 04:07:46;;;;;;;9.87;5.77;;;;;;;7.97;100.00;101439.94;5087229;28;20662;-84
2021/11/19 04:10:14;;;;;;;10.63;5.70;;;;;;;7.95;100.00;101450.31;5083817;28;20219;-85
2021/11/19 04:12:43;;;;;;;12.37;5.57;;;;;;;7.93;100.00;101448.56;5088306;28;20231;-84
2021/11/19 04:15:14;;;;;;;9.40;5.77;;;;;;;7.93;100.00;101452.06;5086802;28;20202;-84
2021/11/19 04:17:42;;;;;;;10.07;5.50;;;;;;;7.93;100.00;101443.38;5082418;28;20220;-84
2021/11/19 04:20:10;;;;;;;11.30;5.87;;;;;;;7.93;100.00;101445.97;5083769;28;20228;-85
2021/11/19 04:22:36;;;;;;;11.17;5.87;;;;;;;7.92;100.00;101452.06;5086818;28;20251;-87
2021/11/19 04:25:07;;;;;;;11.93;5.53;;;;;;;7.91;100.00;101451.16;5087021;28;20200;-84
2021/11/19 04:27:37;;;;;;;10.07;6.57;;;;;;;7.93;100.00;101453.78;5085466;28;20687;-85
2021/11/19 04:30:26;;;;;;;8.30;5.97;;;;;;;7.94;100.00;101460.72;5087367;28;20211;-84
2021/11/19 04:32:54;;;;;;;10.07;6.20;;;;;;;7.92;100.00;101458.09;5083359;28;20252;-86
2021/11/19 04:35:21;;;;;;;8.30;6.17;;;;;;;7.93;100.00;101461.56;5085050;28;20204;-85
2021/11/19 04:37:48;;;;;;;9.80;5.77;;;;;;;7.90;100.00;101449.47;5083613;28;20316;-85
2021/11/19 04:40:17;;;;;;;11.00;6.23;;;;;;;7.90;100.00;101453.81;5085676;28;20225;-84
2021/11/19 04:42:44;;;;;;;9.73;5.83;;;;;;;7.87;100.00;101446.88;5086305;28;20224;-87
2021/11/19 04:45:21;;;;;;;9.90;6.43;;;;;;;7.86;100.00;101439.06;5082935;28;20232;-85
2021/11/19 04:47:50;;;;;;;11.77;7.10;;;;;;;7.84;100.00;101456.41;5086715;28;20185;-85
2021/11/19 04:50:18;;;;;;;13.17;7.20;;;;;;;7.82;100.00;101453.78;5086806;28;20245;-84
2021/11/19 04:52:45;;;;;;;9.53;6.67;;;;;;;7.82;100.00;101455.53;5086146;28;20228;-84
2021/11/19 04:55:12;;;;;;;14.17;7.07;;;;;;;7.81;100.00;101449.50;5087638;28;20193;-88
2021/11/19 04:57:39;;;;;;;9.90;6.83;;;;;;;7.80;100.00;101462.47;5087798;28;20737;-83
2021/11/19 05:00:08;;;;;;;10.13;6.80;;;;;;;7.80;100.00;101450.34;5086769;28;20574;-84
2021/11/19 05:02:41;;;;;;;15.67;6.87;;;;;;;7.77;100.00;101455.53;5085704;28;20224;-84
2021/11/19 05:05:25;;;;;;;11.40;7.17;;;;;;;7.76;100.00;101462.47;5088152;28;20301;-84
2021/11/19 05:07:51;;;;;;;11.63;7.17;;;;;;;7.73;100.00;101454.66;5086070;28;20670;-85
2021/11/19 05:10:18;;;;;;;11.13;7.37;;;;;;;7.72;100.00;101450.38;5083851;28;20690;-87
2021/11/19 05:12:51;;;;;;;13.83;7.53;;;;;;;7.73;100.00;101466.78;5087406;28;20228;-85
2021/11/19 05:15:19;;;;;;;12.77;7.27;;;;;;;7.69;100.00;101460.75;5084421;28;20232;-85
2021/11/19 05:17:46;;;;;;;12.57;7.63;;;;;;;7.69;100.00;101465.94;5074897;28;20225;-84
2021/11/19 05:20:16;;;;;;;12.07;7.13;;;;;;;7.69;100.00;101462.47;5077621;28;20208;-84
2021/11/19 05:22:46;;;;;;;13.57;7.93;;;;;;;7.67;100.00;101457.28;5081851;28;20256;-84
2021/11/19 05:25:15;;;;;;;11.70;7.90;;;;;;;7.72;100.00;101467.66;5081437;28;20212;-85
2021/11/19 05:27:43;;;;;;;15.13;8.60;;;;;;;7.71;100.00;101473.72;5098510;28;20216;-85
2021/11/19 05:30:11;;;;;;;14.87;7.90;;;;;;;7.74;100.00;101479.78;5095570;28;20733;-84
2021/11/19 05:32:50;;;;;;;13.67;8.17;;;;;;;7.75;100.00;101473.69;5082058;28;20227;-89
2021/11/19 05:35:18;;;;;;;16.13;8.13;;;;;;;7.77;100.00;101479.78;5084018;28;20202;-85
2021/11/19 05:37:46;;;;;;;12.90;7.20;;;;;;;7.79;100.00;101482.34;5083932;28;20248;-84
2021/11/19 05:40:16;;;;;;;10.63;7.63;;;;;;;7.81;100.00;101477.16;5083778;28;20244;-85
2021/11/19 05:42:44;;;;;;;15.27;7.97;;;;;;;7.81;100.00;101478.03;5083106;28;20224;-85
2021/11/19 05:45:14;;;;;;;12.03;8.00;;;;;;;7.83;100.00;101478.03;5085161;28;20192;-85
2021/11/19 05:47:57;;;;;;;12.00;8.03;;;;;;;7.84;100.00;101469.38;5083094;28;20708;-86
2021/11/19 05:50:27;;;;;;;12.97;8.20;;;;;;;7.86;100.00;101497.09;5083472;28;20224;-85
2021/11/19 05:52:58;;;;;;;12.93;7.87;;;;;;;7.89;100.00;101496.19;5084603;28;20867;-84
2021/11/19 05:55:30;;;;;;;13.60;7.70;;;;;;;7.90;100.00;101485.81;5085131;28;20201;-83
2021/11/19 05:57:57;;;;;;;15.30;8.03;;;;;;;7.89;100.00;101493.59;5083395;28;20242;-84
2021/11/19 06:00:27;;;;;;;13.90;8.17;;;;;;;7.91;100.00;101487.53;5099283;27;20536;-85
2021/11/19 06:03:03;;;;;;;11.90;8.50;;;;;;;7.92;100.00;101485.81;5083559;28;20319;-83
2021/11/19 06:05:30;;;;;;;12.00;8.20;;;;;;;7.91;100.00;101486.69;5073848;28;20231;-84
2021/11/19 06:08:23;;;;;;;11.63;8.17;;;;;;;7.92;100.00;101489.28;5077105;28;20202;-84
2021/11/19 06:10:52;;;;;;;12.40;8.37;;;;;;;7.94;100.00;101494.47;5078893;28;20207;-83
2021/11/19 06:13:24;;;;;;;13.97;8.33;;;;;;;7.97;100.00;101497.06;5082256;28;20220;-83
2021/11/19 06:15:54;;;;;;;16.73;8.70;;;;;;;8.02;100.00;101497.03;5093335;28;20288;-83
2021/11/19 06:18:24;;;;;;;12.50;8.03;;;;;;;8.03;100.00;101493.59;5083435;28;20354;-84
2021/11/19 06:20:54;;;;;;;17.73;8.90;;;;;;;8.07;100.00;101493.59;5083131;28;20559;-83
2021/11/19 06:23:26;;;;;;;12.90;7.93;;;;;;;8.09;100.00;101499.66;5082506;28;20217;-83
2021/11/19 06:25:54;;;;;;;15.67;8.53;;;;;;;8.10;100.00;101503.94;5078133;28;20300;-83
2021/11/19 06:28:24;;;;;;;13.23;8.17;;;;;;;8.14;100.00;101495.31;5085354;28;20247;-82
2021/11/19 06:30:51;;;;;;;12.60;8.13;;;;;;;8.17;100.00;101498.75;5077523;28;20293;-82
2021/11/19 06:33:19;;;;;;;14.37;8.47;;;;;;;8.20;100.00;101498.75;5083442;28;20229;-84
2021/11/19 06:35:46;;;;;;;12.30;7.57;;;;;;;8.23;100.00;101501.31;5079349;28;20209;-83
2021/11/19 06:38:14;;;;;;;12.47;7.57;;;;;;;8.23;100.00;101498.72;5083721;28;20220;-84
2021/11/19 06:40:47;;;;;;;13.43;8.00;;;;;;;8.23;100.00;101501.31;5085663;28;20292;-82
2021/11/19 06:43:49;;;;;;;11.57;7.77;;;;;;;8.23;100.00;101507.41;5099222;28;20285;-83
2021/11/19 06:46:40;;;;;;;11.30;7.63;;;;;;;8.25;100.00;101509.97;5077710;28;20208;-82
2021/11/19 06:49:45;;;;;;;10.43;7.47;;;;;;;8.27;100.00;101503.06;5082991;28;20215;-86
2021/11/19 06:52:38;;;;;;;10.37;6.97;;;;;;;8.26;100.00;101507.38;5085073;28;20401;-86
2021/11/19 06:55:23;;;;;;;11.60;7.17;;;;;;;8.27;100.00;101501.31;5089331;28;20201;-84
2021/11/19 06:58:10;;;;;;;10.43;7.57;;;;;;;8.27;100.00;101516.06;5083446;28;20291;-85
2021/11/19 07:00:40;;;;;;;11.03;6.87;;;;;;;8.26;100.00;101522.13;5102478;28;20226;-85
2021/11/19 07:03:07;;;;;;;12.07;7.20;;;;;;;8.29;100.00;101527.31;5086006;28;20221;-85
2021/11/19 07:05:35;;;;;;;13.33;7.37;;;;;;;8.27;100.00;101531.66;5089843;28;20200;-87
2021/11/19 07:08:02;;;;;;;11.63;6.67;;;;;;;8.26;100.00;101537.69;5088037;28;20292;-88
2021/11/19 07:10:30;;;;;;;12.40;7.50;;;;;;;8.25;100.00;101534.25;5089437;28;20259;-84
2021/11/19 07:12:56;;;;;;;12.30;7.43;;;;;;;8.25;100.00;101535.97;5088508;28;20271;-85
2021/11/19 07:15:25;;;;;;;13.50;7.13;;;;;;;8.26;100.00;101528.16;5088500;28;20300;-87
2021/11/19 07:17:52;;;;;;;11.30;7.70;;;;;;;8.26;100.00;101538.56;5084718;28;20226;-84
2021/11/19 07:20:23;;;;;;;9.83;6.77;;;;;;;8.26;100.00;101532.50;5088110;28;21310;-84
2021/11/19 07:22:49;;;;;;;12.70;7.03;;;;;;;8.25;100.00;101536.84;5086733;28;20652;-85
2021/11/19 07:25:19;;;;;;;11.50;7.13;;;;;;;8.26;100.00;101543.75;5089250;28;20831;-84
2021/11/19 07:27:48;;;;;;;14.77;7.27;;;;;;;8.28;100.00;101541.16;5086935;28;20215;-85
2021/11/19 07:30:20;;;;;;;11.20;7.07;;;;;;;8.28;100.00;101548.94;5087576;28;20210;-85
2021/11/19 07:33:07;;;;;;;12.63;7.47;;;;;;;8.30;100.00;101548.09;5089085;28;20225;-84
2021/11/19 07:35:53;;;;;;;9.73;6.90;;;;;;;8.29;100.00;101542.91;5086266;28;20202;-84
2021/11/19 07:38:29;;;;;;;9.73;6.20;;;;;;;8.27;100.00;101537.69;5086012;28;20214;-87
2021/11/19 07:41:20;;;;;;;11.17;7.30;;;;;;;8.28;100.00;101548.94;5085969;28;20243;-86
2021/11/19 07:43:54;;;;;;;8.47;6.50;;;;;;;8.28;100.00;101548.94;5087972;28;21557;-85
2021/11/19 07:46:34;;;;;;;11.73;6.47;;;;;;;8.27;100.00;101534.25;5081144;28;20214;-86
2021/11/19 07:49:08;;;;;;;11.83;6.10;;;;;;;8.27;100.00;101539.44;5085626;28;20482;-83
2021/11/19 07:51:42;;;;;;;8.77;5.77;;;;;;;8.29;100.00;101555.88;5085845;28;20606;-84
2021/11/19 07:54:09;;;;;;;12.47;6.07;;;;;;;8.28;100.00;101546.34;5087892;28;20316;-83
2021/11/19 07:56:38;;;;;;;9.93;6.50;;;;;;;8.28;100.00;101560.19;5086086;28;20263;-86
2021/11/19 07:59:08;;;;;;;9.53;5.50;;;;;;;8.28;100.00;101548.94;5087601;28;20224;-84
2021/11/19 08:01:36;;;;;;;12.87;6.60;;;;;;;8.28;100.00;101551.56;5087860;28;20218;-88
2021/11/19 08:04:02;;;;;;;8.33;5.57;;;;;;;8.28;100.00;101549.81;5089640;28;20226;-85
2021/11/19 08:06:31;;;;;;;7.33;5.50;;;;;;;8.31;100.00;101552.41;5088642;28;20233;-88
2021/11/19 08:09:27;;;;;;;7.83;5.77;;;;;;;8.30;100.00;101560.19;5081923;28;21033;-84
2021/11/19 08:12:12;;;;;;;5.77;4.63;;;;;;;8.28;100.00;101552.41;5100675;28;20221;-86
2021/11/19 08:14:45;;;;;;;6.37;4.73;;;;;;;8.31;100.00;101564.53;5085634;28;20288;-85
2021/11/19 08:17:19;;;;;;;5.83;4.90;;;;;;;8.32;100.00;101563.69;5087162;28;20226;-88
2021/11/19 08:19:49;;;;;;;6.33;4.70;;;;;;;8.34;100.00;101560.19;5102967;28;20221;-84
2021/11/19 08:22:17;;;;;;;5.93;4.27;;;;;;;8.36;100.00;101561.94;5086272;28;20287;-85
2021/11/19 08:24:45;;;;;;;8.63;5.00;;;;;;;8.36;100.00;101564.53;5086088;28;20292;-84
2021/11/19 08:27:14;;;;;;;4.63;4.13;;;;;;;8.38;100.00;101568.84;5084633;28;20325;-84
2021/11/19 08:29:44;;;;;;;7.43;4.70;;;;;;;8.38;100.00;101562.81;5085480;28;20205;-83
2021/11/19 08:32:11;;;;;;;6.57;4.50;;;;;;;8.39;100.00;101568.00;5084659;28;20323;-84
2021/11/19 08:34:39;;;;;;;7.30;5.13;;;;;;;8.40;100.00;101568.84;5085656;28;20843;-85
2021/11/19 08:37:05;;;;;;;5.20;4.10;;;;;;;8.41;100.00;101566.25;5083643;28;20218;-84
2021/11/19 08:39:33;;;;;;;6.00;4.03;;;;;;;8.42;100.00;101564.53;5084598;28;20213;-84
2021/11/19 08:42:00;;;;;;;5.10;3.97;;;;;;;8.43;100.00;101561.94;5086058;28;20213;-86
2021/11/19 08:44:27;;;;;;;5.33;4.40;;;;;;;8.42;100.00;101564.53;5087947;28;20212;-86
2021/11/19 08:46:56;;;;;;;5.83;4.13;;;;;;;8.43;100.00;101571.50;5088297;28;20205;-84
2021/11/19 08:49:26;;;;;;;7.53;4.00;;;;;;;8.43;100.00;101563.69;5088334;28;20686;-87
2021/11/19 08:51:54;;;;;;;5.20;4.37;;;;;;;8.45;100.00;101564.56;5084281;28;20304;-85
2021/11/19 08:54:20;;;;;;;8.40;5.30;;;;;;;8.45;100.00;101569.75;5089677;28;20204;-85
2021/11/19 08:56:51;;;;;;;6.20;4.50;;;;;;;8.46;100.00;101561.94;5084890;28;20313;-84
2021/11/19 08:59:19;;;;;;;4.97;4.47;;;;;;;8.48;100.00;101567.16;5089163;28;20303;-82
2021/11/19 09:01:48;;;;;;;6.00;4.43;;;;;;;8.47;100.00;101568.88;5081307;28;20598;-86
2021/11/19 09:04:16;;;;;;;7.40;4.37;;;;;;;8.48;100.00;101569.75;5086465;28;20206;-86
2021/11/19 09:06:43;;;;;;;7.73;4.37;;;;;;;8.48;100.00;101568.00;5084056;28;20205;-85
2021/11/19 09:09:10;;;;;;;9.77;4.60;;;;;;;8.51;100.00;101572.31;5087072;28;20201;-86
2021/11/19 09:11:38;;;;;;;5.97;4.40;;;;;;;8.52;100.00;101561.06;5100980;28;20332;-85
2021/11/19 09:14:07;;;;;;;8.03;4.37;;;;;;;8.53;100.00;101570.56;5087105;28;20210;-84
2021/11/19 09:16:36;;;;;;;5.60;4.50;;;;;;;8.53;100.00;101570.56;5077236;28;20193;-85
2021/11/19 09:19:17;;;;;;;8.13;4.33;;;;;;;8.53;100.00;101567.97;5080759;28;20952;-85
2021/11/19 09:21:49;;;;;;;7.43;4.27;;;;;;;8.52;100.00;101564.53;5087135;28;20232;-84
2021/11/19 09:24:17;;;;;;;4.33;3.93;;;;;;;8.53;100.00;101568.88;5085858;28;20288;-84
2021/11/19 09:26:47;;;;;;;5.37;4.30;;;;;;;8.54;100.00;101561.91;5086536;28;20204;-86
2021/11/19 09:29:17;;;;;;;7.73;4.73;;;;;;;8.59;100.00;101564.53;5081181;28;20206;-85
2021/11/19 09:31:45;;;;;;;7.73;4.23;;;;;;;8.63;100.00;101574.03;5088113;28;20222;-88
2021/11/19 09:34:11;;;;;;;5.70;3.60;;;;;;;8.67;100.00;101575.75;5083909;28;20198;-84
2021/11/19 09:36:40;;;;;;;6.23;4.10;;;;;;;8.69;100.00;101574.03;5083763;28;20202;-85
2021/11/19 09:39:09;;;;;;;5.17;4.30;;;;;;;8.69;100.00;101574.03;5084182;28;20252;-87
2021/11/19 09:41:49;;;;;;;6.00;4.27;;;;;;;8.70;100.00;101571.38;5086774;28;20218;-83
2021/11/19 09:47:38;;;;;;;5.73;4.40;;;;;;;8.81;100.00;101579.19;5076031;27;20621;-76
2021/11/19 09:50:41;;;;;;;5.93;4.10;;;;;;;8.83;100.00;101580.03;5055961;28;20215;-76
2021/11/19 09:53:45;;;;;;;4.37;3.97;;;;;;;8.83;100.00;101574.84;5053585;28;20226;-74
2021/11/19 09:56:27;;;;;;;6.90;4.17;;;;;;;8.82;100.00;101567.91;5054616;28;20205;-75
2021/11/19 09:59:02;;;;;;;4.90;4.13;;;;;;;8.81;100.00;101575.69;5053287;28;20207;-75
2021/11/19 10:01:43;;;;;;;5.17;4.00;;;;;;;8.82;100.00;101577.44;5053917;28;20225;-75
2021/11/19 10:04:31;;;;;;;5.90;4.37;;;;;;;8.80;100.00;101566.19;5056653;28;20211;-75
2021/11/19 10:07:04;;;;;;;5.27;4.53;;;;;;;8.83;100.00;101572.25;5053356;28;20419;-75
2021/11/19 10:09:36;;;;;;;7.50;4.17;;;;;;;8.86;100.00;101573.94;5050569;28;20204;-75
2021/11/19 10:12:09;;;;;;;5.43;4.23;;;;;;;8.85;100.00;101575.69;5056476;28;20286;-75
2021/11/19 10:14:43;;;;;;;5.47;4.50;;;;;;;8.87;100.00;101575.69;5055371;28;20213;-75
2021/11/19 10:17:20;;;;;;;6.53;4.53;;;;;;;8.87;100.00;101570.50;5051976;28;20199;-74
2021/11/19 10:19:51;;;;;;;5.67;4.80;;;;;;;8.87;100.00;101575.69;5055896;28;20583;-75
2021/11/19 10:22:24;;;;;;;11.00;5.10;;;;;;;8.85;100.00;101586.09;5055610;28;20227;-75
2021/11/19 10:24:55;;;;;;;8.10;4.77;;;;;;;8.87;100.00;101578.28;5056072;28;20272;-75
2021/11/19 10:27:24;;;;;;;7.23;4.97;;;;;;;8.89;100.00;101571.34;5057970;28;20253;-75
2021/11/19 10:29:53;;;;;;;5.97;5.00;;;;;;;8.89;100.00;101577.41;5055285;28;20301;-75
2021/11/19 10:32:24;;;;;;;7.67;5.60;;;;;;;8.89;100.00;101572.19;5058681;28;20223;-75
2021/11/19 10:35:07;;;;;;;8.53;5.23;;;;;;;8.89;100.00;101558.34;5056247;28;20207;-75
2021/11/19 10:38:01;;;;;;;8.13;5.60;;;;;;;8.89;100.00;101563.53;5054562;28;20717;-75
2021/11/19 10:41:07;;;;;;;7.17;5.53;;;;;;;8.89;100.00;101554.00;5052919;28;20206;-75
2021/11/19 10:44:00;;;;;;;9.07;5.83;;;;;;;8.89;100.00;101553.13;5054743;28;20297;-75
2021/11/19 10:46:58;;;;;;;10.33;6.27;;;;;;;8.94;100.00;101547.94;5049627;28;20772;-75
2021/11/19 10:49:49;;;;;;;17.40;6.13;;;;;;;8.95;100.00;101553.09;5021390;28;20221;-75
2021/11/19 10:52:57;;;;;;;8.50;5.60;;;;;;;8.98;100.00;101541.81;5052067;28;20660;-74
2021/11/19 10:55:43;;;;;;;9.30;6.00;;;;;;;9.01;100.00;101545.28;5027458;28;20198;-74
2021/11/19 10:58:34;;;;;;;8.97;5.63;;;;;;;9.04;100.00;101545.28;5041593;28;20207;-75
2021/11/19 11:01:37;;;;;;;9.77;5.87;;;;;;;9.07;100.00;101536.56;5039704;28;20314;-75
2021/11/19 11:04:11;;;;;;;7.53;5.33;;;;;;;9.08;100.00;101549.56;5043317;28;20203;-75
2021/11/19 11:06:42;;;;;;;8.30;5.23;;;;;;;9.09;100.00;101550.44;5039002;28;20313;-75
2021/11/19 11:09:21;;;;;;;7.17;5.63;;;;;;;9.08;100.00;101544.38;5043071;28;20302;-75
2021/11/19 11:11:58;;;;;;;7.60;5.13;;;;;;;9.10;100.00;101540.00;5041363;28;20321;-75
2021/11/19 11:14:31;;;;;;;6.67;5.53;;;;;;;9.17;100.00;101545.19;5045420;28;20233;-75
2021/11/19 11:17:02;;;;;;;7.97;5.67;;;;;;;9.22;100.00;101553.84;5041233;28;20210;-75
2021/11/19 11:19:32;;;;;;;7.80;5.93;;;;;;;9.24;100.00;101554.69;5041124;28;20583;-74
2021/11/19 11:22:03;;;;;;;8.80;5.73;;;;;;;9.24;100.00;101550.34;5037251;28;20786;-74
2021/11/19 11:24:33;;;;;;;6.70;5.80;;;;;;;9.25;100.00;101552.09;5044197;28;20747;-74
2021/11/19 11:27:13;;;;;;;6.90;5.33;;;;;;;9.26;100.00;101559.00;5037696;28;20249;-74
2021/11/19 11:29:51;;;;;;;7.70;5.40;;;;;;;9.29;100.00;101551.19;5037859;28;20242;-74
2021/11/19 11:32:34;;;;;;;7.90;5.40;;;;;;;9.33;100.00;101544.22;5039057;28;20591;-74
2021/11/19 11:35:16;;;;;;;6.80;5.67;;;;;;;9.37;100.00;101539.88;5032908;28;20203;-74
2021/11/19 11:37:56;;;;;;;7.03;5.90;;;;;;;9.46;100.00;101539.78;5035329;28;20660;-74
2021/11/19 11:40:36;;;;;;;7.60;5.43;;;;;;;9.47;100.00;101539.78;5039084;28;20669;-74
2021/11/19 11:43:32;;;;;;;7.77;6.00;;;;;;;9.50;100.00;101541.53;5039251;28;20406;-74
2021/11/19 11:46:14;;;;;;;7.03;5.10;;;;;;;9.51;100.00;101547.59;5038608;28;20288;-74
2021/11/19 11:48:45;;;;;;;6.57;5.37;;;;;;;9.50;100.00;101531.09;5040311;28;20219;-74
2021/11/19 11:51:19;;;;;;;8.83;6.80;;;;;;;9.52;100.00;101539.75;5039361;28;20270;-74